sensor_id;sensor_type;location;lat;lon;timestamp;pressure;altitude;pressure_sealevel;temperature;humidity
10718;BME280;13513;42.700;23.124;2023-01-29T00:01:29;92980.25;;;0.56;100.00
10718;BME280;13513;42.700;23.124;2023-01-29T00:04:01;92981.86;;;0.57;100.00
10718;BME280;13513;42.700;23.124;2023-01-29T00:06:31;92981.25;;;0.55;100.00
10718;BME280;13513;42.700;23.124;2023-01-29T00:09:02;92984.33;;;0.55;100.00
10718;BME280;13513;42.700;23.124;2023-01-29T00:11:33;92981.37;;;0.47;100.00
10718;BME280;13513;42.700;23.124;2023-01-29T00:14:04;92986.00;;;0.52;100.00
10718;BME280;13513;42.700;23.124;2023-01-29T00:16:35;92989.17;;;0.58;100.00
10718;BME280;13513;42.700;23.124;2023-01-29T00:19:07;92991.70;;;0.62;100.00
10718;BME280;13513;42.700;23.124;2023-01-29T00:21:38;92990.77;;;0.59;100.00
10718;BME280;13513;42.700;23.124;2023-01-29T00:24:07;92988.80;;;0.61;100.00
10718;BME280;13513;42.700;23.124;2023-01-29T00:26:39;92995.61;;;0.51;100.00
10718;BME280;13513;42.700;23.124;2023-01-29T00:29:11;92996.91;;;0.51;100.00
10718;BME280;13513;42.700;23.124;2023-01-29T00:31:46;92992.95;;;0.55;100.00
10718;BME280;13513;42.700;23.124;2023-01-29T00:34:17;92993.06;;;0.47;100.00
10718;BME280;13513;42.700;23.124;2023-01-29T00:36:48;92997.63;;;0.56;100.00
10718;BME280;13513;42.700;23.124;2023-01-29T00:39:18;92998.49;;;0.31;100.00
10718;BME280;13513;42.700;23.124;2023-01-29T00:41:50;92996.19;;;0.22;100.00
10718;BME280;13513;42.700;23.124;2023-01-29T00:44:35;92995.98;;;0.23;100.00
10718;BME280;13513;42.700;23.124;2023-01-29T00:47:21;92998.02;;;0.17;100.00
10718;BME280;13513;42.700;23.124;2023-01-29T00:49:59;92997.92;;;0.36;100.00
10718;BME280;13513;42.700;23.124;2023-01-29T00:52:30;92999.98;;;0.51;100.00
10718;BME280;13513;42.700;23.124;2023-01-29T00:55:01;92996.20;;;0.53;100.00
10718;BME280;13513;42.700;23.124;2023-01-29T00:57:34;93001.52;;;0.45;100.00
10718;BME280;13513;42.700;23.124;2023-01-29T01:00:07;92998.20;;;0.51;100.00
10718;BME280;13513;42.700;23.124;2023-01-29T01:02:37;92998.02;;;0.53;100.00
10718;BME280;13513;42.700;23.124;2023-01-29T01:05:23;93001.11;;;0.52;100.00
10718;BME280;13513;42.700;23.124;2023-01-29T01:07:55;92994.84;;;0.57;100.00
10718;BME280;13513;42.700;23.124;2023-01-29T01:10:28;92993.06;;;0.47;100.00
10718;BME280;13513;42.700;23.124;2023-01-29T01:13:02;92992.01;;;0.42;100.00
10718;BME280;13513;42.700;23.124;2023-01-29T01:15:37;92992.89;;;0.49;100.00
10718;BME280;13513;42.700;23.124;2023-01-29T01:18:05;92989.83;;;0.56;100.00
10718;BME280;13513;42.700;23.124;2023-01-29T01:20:36;92991.89;;;0.39;100.00
10718;BME280;13513;42.700;23.124;2023-01-29T01:23:07;92993.14;;;0.29;100.00
10718;BME280;13513;42.700;23.124;2023-01-29T01:25:37;92987.53;;;0.36;100.00
10718;BME280;13513;42.700;23.124;2023-01-29T01:28:08;92985.63;;;0.44;100.00
10718;BME280;13513;42.700;23.124;2023-01-29T01:30:40;92986.75;;;0.56;100.00
10718;BME280;13513;42.700;23.124;2023-01-29T01:33:11;92987.51;;;0.61;100.00
10718;BME280;13513;42.700;23.124;2023-01-29T01:35:42;92993.42;;;0.65;100.00
10718;BME280;13513;42.700;23.124;2023-01-29T01:38:13;92987.44;;;0.75;100.00
10718;BME280;13513;42.700;23.124;2023-01-29T01:40:46;92993.19;;;0.71;100.00
10718;BME280;13513;42.700;23.124;2023-01-29T01:43:17;92990.41;;;0.62;100.00
10718;BME280;13513;42.700;23.124;2023-01-29T01:45:48;93000.38;;;0.69;100.00
10718;BME280;13513;42.700;23.124;2023-01-29T01:48:23;92993.37;;;0.59;100.00
10718;BME280;13513;42.700;23.124;2023-01-29T01:50:56;92990.70;;;0.63;100.00
10718;BME280;13513;42.700;23.124;2023-01-29T01:56:15;92994.60;;;0.73;100.00
10718;BME280;13513;42.700;23.124;2023-01-29T01:58:48;93002.73;;;0.85;100.00
10718;BME280;13513;42.700;23.124;2023-01-29T02:01:18;92997.45;;;0.99;100.00
10718;BME280;13513;42.700;23.124;2023-01-29T02:04:10;93004.08;;;0.91;100.00
10718;BME280;13513;42.700;23.124;2023-01-29T02:06:55;93002.09;;;0.83;100.00
10718;BME280;13513;42.700;23.124;2023-01-29T02:09:57;93006.86;;;0.90;100.00
10718;BME280;13513;42.700;23.124;2023-01-29T02:12:17;93002.97;;;0.90;100.00
10718;BME280;13513;42.700;23.124;2023-01-29T02:14:48;93002.03;;;0.87;100.00
10718;BME280;13513;42.700;23.124;2023-01-29T02:17:20;93001.06;;;0.88;100.00
10718;BME280;13513;42.700;23.124;2023-01-29T02:23:03;93003.03;;;0.75;100.00
10718;BME280;13513;42.700;23.124;2023-01-29T02:28:37;93001.44;;;0.74;100.00
10718;BME280;13513;42.700;23.124;2023-01-29T02:31:24;93005.69;;;0.82;100.00
10718;BME280;13513;42.700;23.124;2023-01-29T02:34:17;93004.16;;;0.66;100.00
10718;BME280;13513;42.700;23.124;2023-01-29T02:36:56;93007.55;;;0.67;100.00
10718;BME280;13513;42.700;23.124;2023-01-29T02:39:25;93013.13;;;0.74;100.00
10718;BME280;13513;42.700;23.124;2023-01-29T02:42:00;93010.27;;;0.69;100.00
10718;BME280;13513;42.700;23.124;2023-01-29T02:47:21;93016.45;;;0.79;100.00
10718;BME280;13513;42.700;23.124;2023-01-29T02:50:02;93019.86;;;0.90;100.00
10718;BME280;13513;42.700;23.124;2023-01-29T02:52:28;93023.16;;;0.88;100.00
10718;BME280;13513;42.700;23.124;2023-01-29T02:57:30;93024.83;;;0.85;100.00
10718;BME280;13513;42.700;23.124;2023-01-29T03:00:03;93024.70;;;0.93;100.00
10718;BME280;13513;42.700;23.124;2023-01-29T03:05:17;93026.13;;;0.74;100.00
10718;BME280;13513;42.700;23.124;2023-01-29T03:07:49;93020.45;;;0.85;100.00
10718;BME280;13513;42.700;23.124;2023-01-29T03:10:28;93016.16;;;0.78;100.00
10718;BME280;13513;42.700;23.124;2023-01-29T03:13:03;93019.87;;;0.69;100.00
10718;BME280;13513;42.700;23.124;2023-01-29T03:15:35;93022.35;;;0.77;100.00
10718;BME280;13513;42.700;23.124;2023-01-29T03:18:11;93018.33;;;0.74;100.00
10718;BME280;13513;42.700;23.124;2023-01-29T03:20:44;93023.08;;;0.71;100.00
10718;BME280;13513;42.700;23.124;2023-01-29T03:23:20;93021.05;;;0.77;100.00
10718;BME280;13513;42.700;23.124;2023-01-29T03:25:53;93020.88;;;0.68;100.00
10718;BME280;13513;42.700;23.124;2023-01-29T03:28:42;93025.62;;;0.75;100.00
10718;BME280;13513;42.700;23.124;2023-01-29T03:31:30;93034.72;;;0.64;100.00
10718;BME280;13513;42.700;23.124;2023-01-29T03:34:22;93032.59;;;0.53;100.00
10718;BME280;13513;42.700;23.124;2023-01-29T03:36:55;93036.44;;;0.57;100.00
10718;BME280;13513;42.700;23.124;2023-01-29T03:39:26;93034.29;;;0.61;100.00
10718;BME280;13513;42.700;23.124;2023-01-29T03:42:09;93033.59;;;0.63;100.00
10718;BME280;13513;42.700;23.124;2023-01-29T03:47:48;93027.67;;;0.69;100.00
10718;BME280;13513;42.700;23.124;2023-01-29T03:50:11;93027.86;;;0.67;100.00
10718;BME280;13513;42.700;23.124;2023-01-29T03:55:40;93021.36;;;0.67;100.00
10718;BME280;13513;42.700;23.124;2023-01-29T03:58:41;93025.02;;;0.73;100.00
10718;BME280;13513;42.700;23.124;2023-01-29T04:01:31;93032.00;;;0.62;100.00
10718;BME280;13513;42.700;23.124;2023-01-29T04:04:12;93031.63;;;0.65;100.00
10718;BME280;13513;42.700;23.124;2023-01-29T04:06:44;93018.70;;;0.71;100.00
10718;BME280;13513;42.700;23.124;2023-01-29T04:09:36;93022.72;;;0.74;100.00
10718;BME280;13513;42.700;23.124;2023-01-29T04:12:06;93026.37;;;0.69;100.00
10718;BME280;13513;42.700;23.124;2023-01-29T04:14:33;93023.14;;;0.67;100.00
10718;BME280;13513;42.700;23.124;2023-01-29T04:17:08;93027.40;;;0.64;100.00
10718;BME280;13513;42.700;23.124;2023-01-29T04:19:38;93032.93;;;0.54;100.00
10718;BME280;13513;42.700;23.124;2023-01-29T04:22:15;93034.83;;;0.56;100.00
10718;BME280;13513;42.700;23.124;2023-01-29T04:24:43;93039.55;;;0.67;100.00
10718;BME280;13513;42.700;23.124;2023-01-29T04:30:25;93039.12;;;0.85;100.00
10718;BME280;13513;42.700;23.124;2023-01-29T04:36:35;93040.19;;;0.90;100.00
10718;BME280;13513;42.700;23.124;2023-01-29T04:38:28;93039.06;;;0.89;100.00
10718;BME280;13513;42.700;23.124;2023-01-29T04:41:00;93037.53;;;0.84;100.00
10718;BME280;13513;42.700;23.124;2023-01-29T04:43:46;93036.41;;;0.82;100.00
10718;BME280;13513;42.700;23.124;2023-01-29T04:46:16;93042.97;;;0.89;100.00
10718;BME280;13513;42.700;23.124;2023-01-29T04:48:57;93045.27;;;0.98;100.00
10718;BME280;13513;42.700;23.124;2023-01-29T04:54:07;93043.83;;;1.06;100.00
10718;BME280;13513;42.700;23.124;2023-01-29T04:59:32;93054.12;;;1.04;100.00
10718;BME280;13513;42.700;23.124;2023-01-29T05:02:01;93051.77;;;0.98;100.00
10718;BME280;13513;42.700;23.124;2023-01-29T05:04:33;93052.88;;;1.00;100.00
10718;BME280;13513;42.700;23.124;2023-01-29T05:07:06;93048.59;;;0.82;100.00
10718;BME280;13513;42.700;23.124;2023-01-29T05:09:37;93050.89;;;0.91;100.00
10718;BME280;13513;42.700;23.124;2023-01-29T05:12:09;93053.88;;;0.99;100.00
10718;BME280;13513;42.700;23.124;2023-01-29T05:14:42;93053.48;;;1.02;100.00
10718;BME280;13513;42.700;23.124;2023-01-29T05:17:17;93046.81;;;0.93;100.00
10718;BME280;13513;42.700;23.124;2023-01-29T05:19:47;93053.12;;;0.94;100.00
10718;BME280;13513;42.700;23.124;2023-01-29T05:22:18;93058.38;;;1.01;100.00
10718;BME280;13513;42.700;23.124;2023-01-29T05:24:50;93055.48;;;1.00;100.00
10718;BME280;13513;42.700;23.124;2023-01-29T05:27:23;93056.72;;;1.04;100.00
10718;BME280;13513;42.700;23.124;2023-01-29T05:30:09;93048.74;;;0.95;100.00
10718;BME280;13513;42.700;23.124;2023-01-29T05:32:41;93050.26;;;0.79;100.00
10718;BME280;13513;42.700;23.124;2023-01-29T05:35:12;93052.31;;;0.73;100.00
10718;BME280;13513;42.700;23.124;2023-01-29T05:37:43;93058.69;;;0.70;100.00
10718;BME280;13513;42.700;23.124;2023-01-29T05:40:14;93058.70;;;0.81;100.00
10718;BME280;13513;42.700;23.124;2023-01-29T05:42:44;93059.36;;;0.79;100.00
10718;BME280;13513;42.700;23.124;2023-01-29T05:45:15;93061.47;;;0.79;100.00
10718;BME280;13513;42.700;23.124;2023-01-29T05:47:46;93065.50;;;0.92;100.00
10718;BME280;13513;42.700;23.124;2023-01-29T05:50:17;93076.34;;;1.06;100.00
10718;BME280;13513;42.700;23.124;2023-01-29T05:52:47;93071.27;;;1.09;100.00
10718;BME280;13513;42.700;23.124;2023-01-29T05:55:18;93083.97;;;1.08;100.00
10718;BME280;13513;42.700;23.124;2023-01-29T05:57:49;93074.56;;;1.07;100.00
10718;BME280;13513;42.700;23.124;2023-01-29T06:00:20;93077.34;;;1.16;100.00
10718;BME280;13513;42.700;23.124;2023-01-29T06:02:51;93075.87;;;1.07;100.00
10718;BME280;13513;42.700;23.124;2023-01-29T06:05:22;93088.23;;;0.94;100.00
10718;BME280;13513;42.700;23.124;2023-01-29T06:07:52;93085.88;;;1.10;100.00
10718;BME280;13513;42.700;23.124;2023-01-29T06:10:22;93091.70;;;1.22;100.00
10718;BME280;13513;42.700;23.124;2023-01-29T06:12:53;93095.79;;;1.21;100.00
10718;BME280;13513;42.700;23.124;2023-01-29T06:15:23;93097.21;;;1.23;100.00
10718;BME280;13513;42.700;23.124;2023-01-29T06:17:56;93095.05;;;1.37;100.00
10718;BME280;13513;42.700;23.124;2023-01-29T06:20:27;93098.03;;;1.45;100.00
10718;BME280;13513;42.700;23.124;2023-01-29T06:22:58;93106.86;;;1.50;100.00
10718;BME280;13513;42.700;23.124;2023-01-29T06:25:29;93111.08;;;1.62;100.00
10718;BME280;13513;42.700;23.124;2023-01-29T06:28:00;93109.91;;;1.54;100.00
10718;BME280;13513;42.700;23.124;2023-01-29T06:30:31;93120.46;;;1.46;100.00
10718;BME280;13513;42.700;23.124;2023-01-29T06:33:01;93117.61;;;1.51;100.00
10718;BME280;13513;42.700;23.124;2023-01-29T06:35:32;93123.98;;;1.38;100.00
10718;BME280;13513;42.700;23.124;2023-01-29T06:38:02;93122.08;;;1.36;100.00
10718;BME280;13513;42.700;23.124;2023-01-29T06:40:33;93132.36;;;1.44;100.00
10718;BME280;13513;42.700;23.124;2023-01-29T06:43:04;93123.86;;;1.36;100.00
10718;BME280;13513;42.700;23.124;2023-01-29T06:45:35;93129.70;;;1.38;100.00
10718;BME280;13513;42.700;23.124;2023-01-29T06:48:06;93128.58;;;1.36;100.00
10718;BME280;13513;42.700;23.124;2023-01-29T06:50:37;93130.42;;;1.42;100.00
10718;BME280;13513;42.700;23.124;2023-01-29T06:53:08;93130.91;;;1.10;100.00
10718;BME280;13513;42.700;23.124;2023-01-29T06:55:39;93135.81;;;1.20;100.00
10718;BME280;13513;42.700;23.124;2023-01-29T06:58:12;93135.69;;;1.38;100.00
10718;BME280;13513;42.700;23.124;2023-01-29T07:00:47;93142.38;;;1.26;100.00
10718;BME280;13513;42.700;23.124;2023-01-29T07:03:18;93143.80;;;1.18;100.00
10718;BME280;13513;42.700;23.124;2023-01-29T07:05:52;93145.12;;;1.39;100.00
10718;BME280;13513;42.700;23.124;2023-01-29T07:08:23;93142.14;;;1.32;100.00
10718;BME280;13513;42.700;23.124;2023-01-29T07:11:00;93145.38;;;1.34;100.00
10718;BME280;13513;42.700;23.124;2023-01-29T07:13:31;93144.31;;;1.49;100.00
10718;BME280;13513;42.700;23.124;2023-01-29T07:16:01;93146.23;;;1.62;100.00
10718;BME280;13513;42.700;23.124;2023-01-29T07:18:33;93148.33;;;1.73;100.00
10718;BME280;13513;42.700;23.124;2023-01-29T07:21:05;93157.55;;;1.86;100.00
10718;BME280;13513;42.700;23.124;2023-01-29T07:23:36;93157.77;;;1.91;100.00
10718;BME280;13513;42.700;23.124;2023-01-29T07:26:06;93160.58;;;1.79;100.00
10718;BME280;13513;42.700;23.124;2023-01-29T07:28:38;93161.42;;;1.69;100.00
10718;BME280;13513;42.700;23.124;2023-01-29T07:31:10;93163.66;;;1.72;100.00
10718;BME280;13513;42.700;23.124;2023-01-29T07:33:45;93162.95;;;1.74;100.00
10718;BME280;13513;42.700;23.124;2023-01-29T07:36:12;93163.20;;;1.89;100.00
10718;BME280;13513;42.700;23.124;2023-01-29T07:38:43;93171.16;;;1.81;100.00
10718;BME280;13513;42.700;23.124;2023-01-29T07:41:15;93167.73;;;1.81;100.00
10718;BME280;13513;42.700;23.124;2023-01-29T07:43:45;93171.95;;;1.71;100.00
10718;BME280;13513;42.700;23.124;2023-01-29T07:46:15;93170.77;;;1.74;100.00
10718;BME280;13513;42.700;23.124;2023-01-29T07:48:45;93177.66;;;1.81;100.00
10718;BME280;13513;42.700;23.124;2023-01-29T07:51:16;93174.13;;;1.78;100.00
10718;BME280;13513;42.700;23.124;2023-01-29T07:53:46;93169.11;;;1.66;100.00
10718;BME280;13513;42.700;23.124;2023-01-29T07:56:17;93177.66;;;1.81;100.00
10718;BME280;13513;42.700;23.124;2023-01-29T07:58:47;93181.44;;;1.89;100.00
10718;BME280;13513;42.700;23.124;2023-01-29T08:01:19;93180.56;;;1.82;100.00
10718;BME280;13513;42.700;23.124;2023-01-29T08:03:48;93184.96;;;1.82;100.00
10718;BME280;13513;42.700;23.124;2023-01-29T08:06:19;93186.69;;;1.75;100.00
10718;BME280;13513;42.700;23.124;2023-01-29T08:08:50;93187.80;;;1.87;100.00
10718;BME280;13513;42.700;23.124;2023-01-29T08:11:21;93185.41;;;1.85;100.00
10718;BME280;13513;42.700;23.124;2023-01-29T08:13:52;93185.50;;;1.98;100.00
10718;BME280;13513;42.700;23.124;2023-01-29T08:16:23;93185.11;;;2.12;100.00
10718;BME280;13513;42.700;23.124;2023-01-29T08:18:53;93187.45;;;2.17;100.00
10718;BME280;13513;42.700;23.124;2023-01-29T08:21:24;93189.91;;;2.08;100.00
10718;BME280;13513;42.700;23.124;2023-01-29T08:23:57;93196.20;;;2.20;100.00
10718;BME280;13513;42.700;23.124;2023-01-29T08:26:28;93186.86;;;2.05;100.00
10718;BME280;13513;42.700;23.124;2023-01-29T08:28:59;93189.76;;;2.06;100.00
10718;BME280;13513;42.700;23.124;2023-01-29T08:31:30;93192.30;;;2.10;100.00
10718;BME280;13513;42.700;23.124;2023-01-29T08:34:01;93199.33;;;2.09;100.00
10718;BME280;13513;42.700;23.124;2023-01-29T08:36:31;93198.33;;;2.10;100.00
10718;BME280;13513;42.700;23.124;2023-01-29T08:39:04;93201.16;;;1.88;100.00
10718;BME280;13513;42.700;23.124;2023-01-29T08:41:36;93200.20;;;1.95;100.00
10718;BME280;13513;42.700;23.124;2023-01-29T08:44:06;93203.58;;;1.89;100.00
10718;BME280;13513;42.700;23.124;2023-01-29T08:46:39;93196.91;;;1.87;100.00
10718;BME280;13513;42.700;23.124;2023-01-29T08:49:12;93203.63;;;1.96;100.00
10718;BME280;13513;42.700;23.124;2023-01-29T08:51:42;93205.53;;;1.98;100.00
10718;BME280;13513;42.700;23.124;2023-01-29T08:54:13;93204.41;;;1.96;100.00
10718;BME280;13513;42.700;23.124;2023-01-29T08:56:43;93205.20;;;2.07;100.00
10718;BME280;13513;42.700;23.124;2023-01-29T08:59:13;93213.47;;;2.11;100.00
10718;BME280;13513;42.700;23.124;2023-01-29T09:01:42;93215.94;;;2.19;100.00
10718;BME280;13513;42.700;23.124;2023-01-29T09:04:13;93216.36;;;2.22;100.00
10718;BME280;13513;42.700;23.124;2023-01-29T09:06:44;93221.61;;;2.29;100.00
10718;BME280;13513;42.700;23.124;2023-01-29T09:09:15;93217.70;;;2.39;100.00
10718;BME280;13513;42.700;23.124;2023-01-29T09:11:46;93224.75;;;2.45;100.00
10718;BME280;13513;42.700;23.124;2023-01-29T09:14:17;93222.03;;;2.60;100.00
10718;BME280;13513;42.700;23.124;2023-01-29T09:16:47;93226.11;;;2.69;100.00
10718;BME280;13513;42.700;23.124;2023-01-29T09:19:18;93216.20;;;2.75;100.00
10718;BME280;13513;42.700;23.124;2023-01-29T09:21:48;93222.39;;;2.67;100.00
10718;BME280;13513;42.700;23.124;2023-01-29T09:24:19;93222.11;;;2.56;100.00
10718;BME280;13513;42.700;23.124;2023-01-29T09:26:50;93224.15;;;2.43;100.00
10718;BME280;13513;42.700;23.124;2023-01-29T09:29:20;93221.20;;;2.53;100.00
10718;BME280;13513;42.700;23.124;2023-01-29T09:31:51;93221.36;;;2.62;100.00
10718;BME280;13513;42.700;23.124;2023-01-29T09:34:21;93217.37;;;2.38;100.00
10718;BME280;13513;42.700;23.124;2023-01-29T09:36:52;93218.52;;;2.57;100.00
10718;BME280;13513;42.700;23.124;2023-01-29T09:39:23;93211.50;;;2.74;100.00
10718;BME280;13513;42.700;23.124;2023-01-29T09:47:27;93202.92;;;2.87;99.47
10718;BME280;13513;42.700;23.124;2023-01-29T09:50:04;93206.97;;;2.89;98.64
10718;BME280;13513;42.700;23.124;2023-01-29T09:52:35;93203.33;;;2.84;98.49
10718;BME280;13513;42.700;23.124;2023-01-29T09:57:57;93207.83;;;2.62;99.84
10718;BME280;13513;42.700;23.124;2023-01-29T10:00:46;93198.09;;;2.67;100.00
10718;BME280;13513;42.700;23.124;2023-01-29T10:03:37;93207.94;;;2.65;100.00
10718;BME280;13513;42.700;23.124;2023-01-29T10:06:18;93201.43;;;2.54;100.00
10718;BME280;13513;42.700;23.124;2023-01-29T10:14:17;93191.89;;;2.23;100.00
10718;BME280;13513;42.700;23.124;2023-01-29T10:22:53;93182.06;;;2.19;100.00
10718;BME280;13513;42.700;23.124;2023-01-29T10:25:20;93180.05;;;2.31;100.00
10718;BME280;13513;42.700;23.124;2023-01-29T10:27:53;93183.33;;;2.29;100.00
10718;BME280;13513;42.700;23.124;2023-01-29T10:30:32;93180.41;;;2.01;100.00
10718;BME280;13513;42.700;23.124;2023-01-29T10:33:04;93180.50;;;2.14;100.00
10718;BME280;13513;42.700;23.124;2023-01-29T10:35:42;93171.78;;;2.11;100.00
10718;BME280;13513;42.700;23.124;2023-01-29T10:41:23;93174.95;;;2.34;100.00
10718;BME280;13513;42.700;23.124;2023-01-29T10:52:23;93172.54;;;2.66;100.00
10718;BME280;13513;42.700;23.124;2023-01-29T10:55:25;93169.69;;;2.78;100.00
10718;BME280;13513;42.700;23.124;2023-01-29T11:00:29;93164.19;;;2.67;100.00
10718;BME280;13513;42.700;23.124;2023-01-29T11:03:04;93163.87;;;2.59;100.00
10718;BME280;13513;42.700;23.124;2023-01-29T11:05:40;93166.02;;;2.66;100.00
10718;BME280;13513;42.700;23.124;2023-01-29T11:08:11;93164.11;;;2.71;100.00
10718;BME280;13513;42.700;23.124;2023-01-29T11:10:49;93167.05;;;2.72;100.00
10718;BME280;13513;42.700;23.124;2023-01-29T11:13:17;93160.09;;;2.68;100.00
10718;BME280;13513;42.700;23.124;2023-01-29T11:15:52;93157.11;;;2.71;100.00
10718;BME280;13513;42.700;23.124;2023-01-29T11:18:22;93159.23;;;2.72;100.00
10718;BME280;13513;42.700;23.124;2023-01-29T11:21:02;93160.88;;;2.62;100.00
10718;BME280;13513;42.700;23.124;2023-01-29T11:23:32;93154.01;;;2.72;100.00
10718;BME280;13513;42.700;23.124;2023-01-29T11:26:03;93152.56;;;2.86;100.00
10718;BME280;13513;42.700;23.124;2023-01-29T11:28:42;93142.79;;;3.01;99.85
10718;BME280;13513;42.700;23.124;2023-01-29T11:31:34;93145.45;;;3.21;98.21
10718;BME280;13513;42.700;23.124;2023-01-29T11:34:12;93139.01;;;3.17;97.28
10718;BME280;13513;42.700;23.124;2023-01-29T11:36:35;93140.11;;;3.12;97.86
10718;BME280;13513;42.700;23.124;2023-01-29T11:39:18;93133.56;;;3.05;97.89
10718;BME280;13513;42.700;23.124;2023-01-29T11:41:56;93127.22;;;2.97;98.70
10718;BME280;13513;42.700;23.124;2023-01-29T11:44:32;93122.98;;;2.96;99.11
10718;BME280;13513;42.700;23.124;2023-01-29T11:47:17;93123.86;;;2.86;99.01
10718;BME280;13513;42.700;23.124;2023-01-29T11:49:48;93117.83;;;2.86;99.45
10718;BME280;13513;42.700;23.124;2023-01-29T11:52:25;93121.38;;;2.95;99.31
10718;BME280;13513;42.700;23.124;2023-01-29T11:55:12;93113.72;;;2.87;99.89
10718;BME280;13513;42.700;23.124;2023-01-29T11:57:42;93117.89;;;2.99;99.86
10718;BME280;13513;42.700;23.124;2023-01-29T12:00:26;93119.33;;;3.14;98.86
10718;BME280;13513;42.700;23.124;2023-01-29T12:03:10;93118.17;;;3.30;96.44
10718;BME280;13513;42.700;23.124;2023-01-29T12:05:38;93108.46;;;3.47;96.41
10718;BME280;13513;42.700;23.124;2023-01-29T12:08:16;93115.31;;;3.74;95.58
10718;BME280;13513;42.700;23.124;2023-01-29T12:10:48;93105.25;;;3.84;94.55
10718;BME280;13513;42.700;23.124;2023-01-29T12:13:25;93103.03;;;4.07;93.50
10718;BME280;13513;42.700;23.124;2023-01-29T12:16:16;93099.88;;;4.27;92.91
10718;BME280;13513;42.700;23.124;2023-01-29T12:18:49;93101.95;;;4.54;90.38
10718;BME280;13513;42.700;23.124;2023-01-29T12:24:33;93110.04;;;4.68;89.09
10718;BME280;13513;42.700;23.124;2023-01-29T12:27:11;93107.77;;;4.63;88.98
10718;BME280;13513;42.700;23.124;2023-01-29T12:35:42;93110.45;;;4.30;87.63
10718;BME280;13513;42.700;23.124;2023-01-29T12:38:20;93111.08;;;3.99;88.60
10718;BME280;13513;42.700;23.124;2023-01-29T12:40:58;93116.82;;;4.05;89.69
10718;BME280;13513;42.700;23.124;2023-01-29T12:43:30;93111.10;;;3.80;90.51
10718;BME280;13513;42.700;23.124;2023-01-29T12:46:01;93113.70;;;3.86;91.17
10718;BME280;13513;42.700;23.124;2023-01-29T12:48:36;93111.70;;;3.69;91.34
10718;BME280;13513;42.700;23.124;2023-01-29T12:51:11;93109.77;;;3.60;92.60
10718;BME280;13513;42.700;23.124;2023-01-29T12:54:00;93108.56;;;3.50;93.28
10718;BME280;13513;42.700;23.124;2023-01-29T12:56:31;93107.94;;;3.54;93.37
10718;BME280;13513;42.700;23.124;2023-01-29T12:59:46;93113.88;;;3.46;93.13
10718;BME280;13513;42.700;23.124;2023-01-29T13:01:45;93114.86;;;3.45;94.17
10718;BME280;13513;42.700;23.124;2023-01-29T13:04:17;93113.48;;;3.49;93.11
10718;BME280;13513;42.700;23.124;2023-01-29T13:07:03;93107.02;;;3.38;93.72
10718;BME280;13513;42.700;23.124;2023-01-29T13:09:31;93104.22;;;3.40;94.25
10718;BME280;13513;42.700;23.124;2023-01-29T13:12:10;93107.31;;;3.33;94.65
10718;BME280;13513;42.700;23.124;2023-01-29T13:14:51;93108.03;;;3.31;94.49
10718;BME280;13513;42.700;23.124;2023-01-29T13:17:32;93100.59;;;3.34;94.64
10718;BME280;13513;42.700;23.124;2023-01-29T13:22:42;93111.59;;;3.17;97.07
10718;BME280;13513;42.700;23.124;2023-01-29T13:25:18;93113.99;;;3.05;97.37
10718;BME280;13513;42.700;23.124;2023-01-29T13:27:45;93118.28;;;2.96;98.31
10718;BME280;13513;42.700;23.124;2023-01-29T13:30:34;93115.89;;;3.07;98.21
10718;BME280;13513;42.700;23.124;2023-01-29T13:33:06;93118.70;;;3.06;97.82
10718;BME280;13513;42.700;23.124;2023-01-29T13:35:40;93117.46;;;2.95;97.11
10718;BME280;13513;42.700;23.124;2023-01-29T13:38:24;93125.35;;;3.08;96.53
10718;BME280;13513;42.700;23.124;2023-01-29T13:41:06;93125.63;;;3.03;97.09
10718;BME280;13513;42.700;23.124;2023-01-29T13:43:40;93126.70;;;2.98;96.99
10718;BME280;13513;42.700;23.124;2023-01-29T13:46:13;93124.45;;;2.88;96.91
10718;BME280;13513;42.700;23.124;2023-01-29T13:48:47;93127.16;;;2.84;97.75
10718;BME280;13513;42.700;23.124;2023-01-29T13:51:20;93131.41;;;2.92;97.29
10718;BME280;13513;42.700;23.124;2023-01-29T13:54:14;93134.12;;;2.71;97.53
10718;BME280;13513;42.700;23.124;2023-01-29T14:04:25;93144.50;;;2.58;98.37
10718;BME280;13513;42.700;23.124;2023-01-29T14:06:57;93143.47;;;2.52;98.35
10718;BME280;13513;42.700;23.124;2023-01-29T14:12:31;93148.14;;;2.29;99.81
10718;BME280;13513;42.700;23.124;2023-01-29T14:26:39;93163.44;;;2.22;100.00
10718;BME280;13513;42.700;23.124;2023-01-29T14:29:16;93165.23;;;2.21;100.00
10718;BME280;13513;42.700;23.124;2023-01-29T14:32:32;93166.98;;;2.14;100.00
10718;BME280;13513;42.700;23.124;2023-01-29T14:34:40;93166.72;;;2.20;100.00
10718;BME280;13513;42.700;23.124;2023-01-29T14:39:55;93171.52;;;2.16;100.00
10718;BME280;13513;42.700;23.124;2023-01-29T14:42:33;93174.31;;;2.15;100.00
10718;BME280;13513;42.700;23.124;2023-01-29T14:45:23;93172.68;;;2.14;100.00
10718;BME280;13513;42.700;23.124;2023-01-29T14:47:59;93173.42;;;2.18;100.00
10718;BME280;13513;42.700;23.124;2023-01-29T14:56:32;93160.70;;;1.92;100.00
10718;BME280;13513;42.700;23.124;2023-01-29T14:59:17;93167.17;;;1.85;100.00
10718;BME280;13513;42.700;23.124;2023-01-29T15:01:51;93171.94;;;1.82;100.00
10718;BME280;13513;42.700;23.124;2023-01-29T15:04:28;93168.83;;;1.93;100.00
10718;BME280;13513;42.700;23.124;2023-01-29T15:07:10;93168.91;;;2.16;100.00
10718;BME280;13513;42.700;23.124;2023-01-29T15:09:44;93174.36;;;2.21;100.00
10718;BME280;13513;42.700;23.124;2023-01-29T15:15:04;93171.24;;;1.94;100.00
10718;BME280;13513;42.700;23.124;2023-01-29T15:20:33;93172.23;;;1.83;100.00
10718;BME280;13513;42.700;23.124;2023-01-29T15:23:22;93164.64;;;1.81;100.00
10718;BME280;13513;42.700;23.124;2023-01-29T15:25:46;93170.22;;;1.78;100.00